sensor_id;sensor_type;location;lat;lon;timestamp;temperature;humidity
15930;DHT22;8064;51.142;4.780;2024-02-15T00:00:44;13.50;99.90
15930;DHT22;8064;51.142;4.780;2024-02-15T00:03:10;13.50;99.90
15930;DHT22;8064;51.142;4.780;2024-02-15T00:05:39;13.40;99.90
15930;DHT22;8064;51.142;4.780;2024-02-15T00:08:05;13.40;99.90
15930;DHT22;8064;51.142;4.780;2024-02-15T00:10:32;13.40;99.90
15930;DHT22;8064;51.142;4.780;2024-02-15T00:12:58;13.40;99.90
15930;DHT22;8064;51.142;4.780;2024-02-15T00:15:24;13.40;99.90
15930;DHT22;8064;51.142;4.780;2024-02-15T00:17:50;13.40;99.90
15930;DHT22;8064;51.142;4.780;2024-02-15T00:20:17;13.50;99.90
15930;DHT22;8064;51.142;4.780;2024-02-15T00:22:43;13.40;99.90
15930;DHT22;8064;51.142;4.780;2024-02-15T00:25:09;13.50;99.90
15930;DHT22;8064;51.142;4.780;2024-02-15T00:27:36;13.40;99.90
15930;DHT22;8064;51.142;4.780;2024-02-15T00:30:03;13.40;99.90
15930;DHT22;8064;51.142;4.780;2024-02-15T00:32:33;13.40;99.90
15930;DHT22;8064;51.142;4.780;2024-02-15T00:34:59;13.40;99.90
15930;DHT22;8064;51.142;4.780;2024-02-15T00:37:25;13.40;99.90
15930;DHT22;8064;51.142;4.780;2024-02-15T00:39:50;13.40;99.90
15930;DHT22;8064;51.142;4.780;2024-02-15T00:42:16;13.40;99.90
15930;DHT22;8064;51.142;4.780;2024-02-15T00:44:42;13.50;99.90
15930;DHT22;8064;51.142;4.780;2024-02-15T00:47:09;13.40;99.90
15930;DHT22;8064;51.142;4.780;2024-02-15T00:49:37;13.40;99.90
15930;DHT22;8064;51.142;4.780;2024-02-15T00:52:02;13.40;99.90
15930;DHT22;8064;51.142;4.780;2024-02-15T00:54:28;13.40;99.90
15930;DHT22;8064;51.142;4.780;2024-02-15T00:56:54;13.40;99.90
15930;DHT22;8064;51.142;4.780;2024-02-15T00:59:20;13.40;99.90
15930;DHT22;8064;51.142;4.780;2024-02-15T01:01:45;13.40;99.90
15930;DHT22;8064;51.142;4.780;2024-02-15T01:04:13;13.40;99.90
15930;DHT22;8064;51.142;4.780;2024-02-15T01:06:39;13.40;99.90
15930;DHT22;8064;51.142;4.780;2024-02-15T01:09:04;13.40;99.90
15930;DHT22;8064;51.142;4.780;2024-02-15T01:11:31;13.40;99.90
15930;DHT22;8064;51.142;4.780;2024-02-15T01:13:58;13.40;99.90
15930;DHT22;8064;51.142;4.780;2024-02-15T01:16:24;13.40;99.90
15930;DHT22;8064;51.142;4.780;2024-02-15T01:18:50;13.50;99.90
15930;DHT22;8064;51.142;4.780;2024-02-15T01:21:16;13.40;99.90
15930;DHT22;8064;51.142;4.780;2024-02-15T01:23:42;13.40;99.90
15930;DHT22;8064;51.142;4.780;2024-02-15T01:26:09;13.40;99.90
15930;DHT22;8064;51.142;4.780;2024-02-15T01:28:36;13.40;99.90
15930;DHT22;8064;51.142;4.780;2024-02-15T01:31:02;13.50;99.90
15930;DHT22;8064;51.142;4.780;2024-02-15T01:33:27;13.50;99.90
15930;DHT22;8064;51.142;4.780;2024-02-15T01:35:53;13.50;99.90
15930;DHT22;8064;51.142;4.780;2024-02-15T01:38:19;13.50;99.90
15930;DHT22;8064;51.142;4.780;2024-02-15T01:40:47;13.50;99.90
15930;DHT22;8064;51.142;4.780;2024-02-15T01:43:12;13.50;99.90
15930;DHT22;8064;51.142;4.780;2024-02-15T01:45:38;13.50;99.90
15930;DHT22;8064;51.142;4.780;2024-02-15T01:48:05;13.50;99.90
15930;DHT22;8064;51.142;4.780;2024-02-15T01:50:31;13.50;99.90
15930;DHT22;8064;51.142;4.780;2024-02-15T01:53:01;13.50;99.90
15930;DHT22;8064;51.142;4.780;2024-02-15T01:55:29;13.50;99.90
15930;DHT22;8064;51.142;4.780;2024-02-15T01:57:55;13.50;99.90
15930;DHT22;8064;51.142;4.780;2024-02-15T02:00:21;13.50;99.90
15930;DHT22;8064;51.142;4.780;2024-02-15T02:02:48;13.50;99.90
15930;DHT22;8064;51.142;4.780;2024-02-15T02:05:14;13.50;99.90
15930;DHT22;8064;51.142;4.780;2024-02-15T02:07:40;13.50;99.90
15930;DHT22;8064;51.142;4.780;2024-02-15T02:10:07;13.50;99.90
15930;DHT22;8064;51.142;4.780;2024-02-15T02:12:33;13.50;99.90
15930;DHT22;8064;51.142;4.780;2024-02-15T02:14:58;13.60;99.90
15930;DHT22;8064;51.142;4.780;2024-02-15T02:17:24;13.60;99.90
15930;DHT22;8064;51.142;4.780;2024-02-15T02:19:50;13.60;99.90
15930;DHT22;8064;51.142;4.780;2024-02-15T02:22:16;13.60;99.90
15930;DHT22;8064;51.142;4.780;2024-02-15T02:27:29;13.60;99.90
15930;DHT22;8064;51.142;4.780;2024-02-15T02:29:55;13.60;99.90
15930;DHT22;8064;51.142;4.780;2024-02-15T02:32:22;13.60;99.90
15930;DHT22;8064;51.142;4.780;2024-02-15T02:34:48;13.60;99.90
15930;DHT22;8064;51.142;4.780;2024-02-15T02:37:13;13.60;99.90
15930;DHT22;8064;51.142;4.780;2024-02-15T02:39:39;13.60;99.90
15930;DHT22;8064;51.142;4.780;2024-02-15T02:42:05;13.60;99.90
15930;DHT22;8064;51.142;4.780;2024-02-15T02:44:31;13.60;99.90
15930;DHT22;8064;51.142;4.780;2024-02-15T02:46:57;13.60;99.90
15930;DHT22;8064;51.142;4.780;2024-02-15T02:49:32;13.60;99.90
15930;DHT22;8064;51.142;4.780;2024-02-15T02:51:58;13.60;99.90
15930;DHT22;8064;51.142;4.780;2024-02-15T02:54:24;13.60;99.90
15930;DHT22;8064;51.142;4.780;2024-02-15T02:56:49;13.60;99.90
15930;DHT22;8064;51.142;4.780;2024-02-15T02:59:15;13.60;99.90
15930;DHT22;8064;51.142;4.780;2024-02-15T03:01:41;13.60;99.90
15930;DHT22;8064;51.142;4.780;2024-02-15T03:04:08;13.60;99.90
15930;DHT22;8064;51.142;4.780;2024-02-15T03:06:34;13.50;99.90
15930;DHT22;8064;51.142;4.780;2024-02-15T03:09:01;13.60;99.90
15930;DHT22;8064;51.142;4.780;2024-02-15T03:11:26;13.50;99.90
15930;DHT22;8064;51.142;4.780;2024-02-15T03:13:52;13.50;99.90
15930;DHT22;8064;51.142;4.780;2024-02-15T03:16:22;13.50;99.90
15930;DHT22;8064;51.142;4.780;2024-02-15T03:18:48;13.50;99.90
15930;DHT22;8064;51.142;4.780;2024-02-15T03:21:14;13.40;99.90
15930;DHT22;8064;51.142;4.780;2024-02-15T03:23:40;13.50;99.90
15930;DHT22;8064;51.142;4.780;2024-02-15T03:26:08;13.40;99.90
15930;DHT22;8064;51.142;4.780;2024-02-15T03:28:34;13.40;99.90
15930;DHT22;8064;51.142;4.780;2024-02-15T03:31:02;13.40;99.90
15930;DHT22;8064;51.142;4.780;2024-02-15T03:33:28;13.30;99.90
15930;DHT22;8064;51.142;4.780;2024-02-15T03:35:59;13.30;99.90
15930;DHT22;8064;51.142;4.780;2024-02-15T03:38:26;13.30;99.90
15930;DHT22;8064;51.142;4.780;2024-02-15T03:40:55;13.30;99.90
15930;DHT22;8064;51.142;4.780;2024-02-15T03:43:20;13.20;99.90
15930;DHT22;8064;51.142;4.780;2024-02-15T03:45:46;13.20;99.90
15930;DHT22;8064;51.142;4.780;2024-02-15T03:48:12;13.20;99.90
15930;DHT22;8064;51.142;4.780;2024-02-15T03:50:38;13.20;99.90
15930;DHT22;8064;51.142;4.780;2024-02-15T03:53:04;13.20;99.90
15930;DHT22;8064;51.142;4.780;2024-02-15T03:55:29;13.20;99.90
15930;DHT22;8064;51.142;4.780;2024-02-15T03:57:55;13.10;99.90
15930;DHT22;8064;51.142;4.780;2024-02-15T04:00:22;13.10;99.90
15930;DHT22;8064;51.142;4.780;2024-02-15T04:02:50;13.10;99.90
15930;DHT22;8064;51.142;4.780;2024-02-15T04:05:16;13.10;99.90
15930;DHT22;8064;51.142;4.780;2024-02-15T04:07:44;13.10;99.90
15930;DHT22;8064;51.142;4.780;2024-02-15T04:10:10;13.10;99.90
15930;DHT22;8064;51.142;4.780;2024-02-15T04:12:36;13.10;99.90
15930;DHT22;8064;51.142;4.780;2024-02-15T04:15:02;13.10;99.90
15930;DHT22;8064;51.142;4.780;2024-02-15T04:17:38;13.10;99.90
15930;DHT22;8064;51.142;4.780;2024-02-15T04:20:04;13.10;99.90
15930;DHT22;8064;51.142;4.780;2024-02-15T04:22:32;13.10;99.90
15930;DHT22;8064;51.142;4.780;2024-02-15T04:25:04;13.10;99.90
15930;DHT22;8064;51.142;4.780;2024-02-15T04:27:31;13.10;99.90
15930;DHT22;8064;51.142;4.780;2024-02-15T04:29:57;13.10;99.90
15930;DHT22;8064;51.142;4.780;2024-02-15T04:32:23;13.10;99.90
15930;DHT22;8064;51.142;4.780;2024-02-15T04:34:49;13.10;99.90
15930;DHT22;8064;51.142;4.780;2024-02-15T04:37:14;13.10;99.90
15930;DHT22;8064;51.142;4.780;2024-02-15T04:39:42;13.10;99.90
15930;DHT22;8064;51.142;4.780;2024-02-15T04:42:08;13.20;99.90
15930;DHT22;8064;51.142;4.780;2024-02-15T04:44:38;13.10;99.90
15930;DHT22;8064;51.142;4.780;2024-02-15T04:47:05;13.10;99.90
15930;DHT22;8064;51.142;4.780;2024-02-15T04:49:31;13.10;99.90
15930;DHT22;8064;51.142;4.780;2024-02-15T04:51:57;13.10;99.90
15930;DHT22;8064;51.142;4.780;2024-02-15T04:54:23;13.10;99.90
15930;DHT22;8064;51.142;4.780;2024-02-15T04:56:49;13.20;99.90
15930;DHT22;8064;51.142;4.780;2024-02-15T04:59:19;13.10;99.90
15930;DHT22;8064;51.142;4.780;2024-02-15T05:01:47;13.10;99.90
15930;DHT22;8064;51.142;4.780;2024-02-15T05:04:13;13.10;99.90
15930;DHT22;8064;51.142;4.780;2024-02-15T05:06:39;13.10;99.90
15930;DHT22;8064;51.142;4.780;2024-02-15T05:09:06;13.10;99.90
15930;DHT22;8064;51.142;4.780;2024-02-15T05:11:34;13.00;99.90
15930;DHT22;8064;51.142;4.780;2024-02-15T05:14:02;13.00;99.90
15930;DHT22;8064;51.142;4.780;2024-02-15T05:16:33;13.00;99.90
15930;DHT22;8064;51.142;4.780;2024-02-15T05:18:59;13.00;99.90
15930;DHT22;8064;51.142;4.780;2024-02-15T05:21:25;13.00;99.90
15930;DHT22;8064;51.142;4.780;2024-02-15T05:23:51;13.00;99.90
15930;DHT22;8064;51.142;4.780;2024-02-15T05:26:18;13.00;99.90
15930;DHT22;8064;51.142;4.780;2024-02-15T05:28:50;13.00;99.90
15930;DHT22;8064;51.142;4.780;2024-02-15T05:31:18;13.00;99.90
15930;DHT22;8064;51.142;4.780;2024-02-15T05:33:47;13.00;99.90
15930;DHT22;8064;51.142;4.780;2024-02-15T05:36:14;13.00;99.90
15930;DHT22;8064;51.142;4.780;2024-02-15T05:38:40;13.00;99.90
15930;DHT22;8064;51.142;4.780;2024-02-15T05:41:06;13.00;99.90
15930;DHT22;8064;51.142;4.780;2024-02-15T05:43:34;13.00;99.90
15930;DHT22;8064;51.142;4.780;2024-02-15T05:46:07;13.00;99.90
15930;DHT22;8064;51.142;4.780;2024-02-15T05:48:34;13.00;99.90
15930;DHT22;8064;51.142;4.780;2024-02-15T05:51:01;13.00;99.90
15930;DHT22;8064;51.142;4.780;2024-02-15T05:53:27;13.00;99.90
15930;DHT22;8064;51.142;4.780;2024-02-15T05:55:55;13.00;99.90
15930;DHT22;8064;51.142;4.780;2024-02-15T05:58:21;13.00;99.90
15930;DHT22;8064;51.142;4.780;2024-02-15T06:00:46;13.00;99.90
15930;DHT22;8064;51.142;4.780;2024-02-15T06:03:15;13.00;99.90
15930;DHT22;8064;51.142;4.780;2024-02-15T06:05:42;13.00;99.90
15930;DHT22;8064;51.142;4.780;2024-02-15T06:08:08;12.90;99.90
15930;DHT22;8064;51.142;4.780;2024-02-15T06:10:33;12.90;99.90
15930;DHT22;8064;51.142;4.780;2024-02-15T06:12:59;12.90;99.90
15930;DHT22;8064;51.142;4.780;2024-02-15T06:15:25;12.90;99.90
15930;DHT22;8064;51.142;4.780;2024-02-15T06:17:52;12.90;99.90
15930;DHT22;8064;51.142;4.780;2024-02-15T06:20:18;12.90;99.90
15930;DHT22;8064;51.142;4.780;2024-02-15T06:22:46;12.90;99.90
15930;DHT22;8064;51.142;4.780;2024-02-15T06:25:12;12.90;99.90
15930;DHT22;8064;51.142;4.780;2024-02-15T06:27:40;12.90;99.90
15930;DHT22;8064;51.142;4.780;2024-02-15T06:30:09;12.90;99.90
15930;DHT22;8064;51.142;4.780;2024-02-15T06:32:53;13.00;99.90
15930;DHT22;8064;51.142;4.780;2024-02-15T06:35:38;13.00;99.90
15930;DHT22;8064;51.142;4.780;2024-02-15T06:38:40;13.00;99.90
15930;DHT22;8064;51.142;4.780;2024-02-15T06:41:24;13.00;99.90
15930;DHT22;8064;51.142;4.780;2024-02-15T06:43:50;13.00;99.90
15930;DHT22;8064;51.142;4.780;2024-02-15T06:46:16;13.00;99.90
15930;DHT22;8064;51.142;4.780;2024-02-15T06:48:44;13.00;99.90
15930;DHT22;8064;51.142;4.780;2024-02-15T06:51:12;13.10;99.90
15930;DHT22;8064;51.142;4.780;2024-02-15T06:53:40;13.00;99.90
15930;DHT22;8064;51.142;4.780;2024-02-15T06:56:08;13.10;99.90
15930;DHT22;8064;51.142;4.780;2024-02-15T06:58:34;13.10;99.90
15930;DHT22;8064;51.142;4.780;2024-02-15T07:01:00;13.10;99.90
15930;DHT22;8064;51.142;4.780;2024-02-15T07:03:28;13.10;99.90
15930;DHT22;8064;51.142;4.780;2024-02-15T07:05:55;13.10;99.90
15930;DHT22;8064;51.142;4.780;2024-02-15T07:08:21;13.10;99.90
15930;DHT22;8064;51.142;4.780;2024-02-15T07:10:50;13.10;99.90
15930;DHT22;8064;51.142;4.780;2024-02-15T07:13:17;13.10;99.90
15930;DHT22;8064;51.142;4.780;2024-02-15T07:15:44;13.10;99.90
15930;DHT22;8064;51.142;4.780;2024-02-15T07:18:12;13.20;99.90
15930;DHT22;8064;51.142;4.780;2024-02-15T07:20:42;13.10;99.90
15930;DHT22;8064;51.142;4.780;2024-02-15T07:23:08;13.10;99.90
15930;DHT22;8064;51.142;4.780;2024-02-15T07:25:34;13.20;99.90
15930;DHT22;8064;51.142;4.780;2024-02-15T07:28:01;13.20;99.90
15930;DHT22;8064;51.142;4.780;2024-02-15T07:30:27;13.20;99.90
15930;DHT22;8064;51.142;4.780;2024-02-15T07:33:12;13.20;99.90
15930;DHT22;8064;51.142;4.780;2024-02-15T07:35:42;13.20;99.90
15930;DHT22;8064;51.142;4.780;2024-02-15T07:38:09;13.30;99.90
15930;DHT22;8064;51.142;4.780;2024-02-15T07:40:35;13.30;99.90
15930;DHT22;8064;51.142;4.780;2024-02-15T07:43:03;13.30;99.90
15930;DHT22;8064;51.142;4.780;2024-02-15T07:45:31;13.30;99.90
15930;DHT22;8064;51.142;4.780;2024-02-15T07:48:01;13.30;99.90
15930;DHT22;8064;51.142;4.780;2024-02-15T07:50:26;13.30;99.90
15930;DHT22;8064;51.142;4.780;2024-02-15T07:52:52;13.30;99.90
15930;DHT22;8064;51.142;4.780;2024-02-15T07:55:19;13.30;99.90
15930;DHT22;8064;51.142;4.780;2024-02-15T07:57:46;13.30;99.90
15930;DHT22;8064;51.142;4.780;2024-02-15T08:00:13;13.40;99.90
15930;DHT22;8064;51.142;4.780;2024-02-15T08:02:42;13.40;99.90
15930;DHT22;8064;51.142;4.780;2024-02-15T08:05:09;13.40;99.90
15930;DHT22;8064;51.142;4.780;2024-02-15T08:07:41;13.40;99.90
15930;DHT22;8064;51.142;4.780;2024-02-15T08:10:07;13.50;99.90
15930;DHT22;8064;51.142;4.780;2024-02-15T08:12:42;13.50;99.90
15930;DHT22;8064;51.142;4.780;2024-02-15T08:15:09;13.50;99.90
15930;DHT22;8064;51.142;4.780;2024-02-15T08:17:42;13.60;99.90
15930;DHT22;8064;51.142;4.780;2024-02-15T08:20:10;13.60;99.90
15930;DHT22;8064;51.142;4.780;2024-02-15T08:22:38;13.60;99.90
15930;DHT22;8064;51.142;4.780;2024-02-15T08:25:07;13.60;99.90
15930;DHT22;8064;51.142;4.780;2024-02-15T08:27:37;13.70;99.90
15930;DHT22;8064;51.142;4.780;2024-02-15T08:30:08;13.70;99.90
15930;DHT22;8064;51.142;4.780;2024-02-15T08:32:35;13.80;99.90
15930;DHT22;8064;51.142;4.780;2024-02-15T08:35:00;13.80;99.90
15930;DHT22;8064;51.142;4.780;2024-02-15T08:37:26;13.80;99.90
15930;DHT22;8064;51.142;4.780;2024-02-15T08:39:52;13.80;99.90
15930;DHT22;8064;51.142;4.780;2024-02-15T08:42:18;13.90;99.90
15930;DHT22;8064;51.142;4.780;2024-02-15T08:44:48;13.90;99.90
15930;DHT22;8064;51.142;4.780;2024-02-15T08:47:17;13.90;99.90
15930;DHT22;8064;51.142;4.780;2024-02-15T08:49:44;14.00;99.90
15930;DHT22;8064;51.142;4.780;2024-02-15T08:52:11;14.00;99.90
15930;DHT22;8064;51.142;4.780;2024-02-15T08:54:37;14.00;99.90
15930;DHT22;8064;51.142;4.780;2024-02-15T08:57:06;14.00;99.90
15930;DHT22;8064;51.142;4.780;2024-02-15T08:59:34;14.10;99.90
15930;DHT22;8064;51.142;4.780;2024-02-15T09:02:00;14.10;99.90
15930;DHT22;8064;51.142;4.780;2024-02-15T09:04:26;14.20;99.90
15930;DHT22;8064;51.142;4.780;2024-02-15T09:06:52;14.20;99.90
15930;DHT22;8064;51.142;4.780;2024-02-15T09:09:19;14.30;99.90
15930;DHT22;8064;51.142;4.780;2024-02-15T09:11:45;14.30;99.90
15930;DHT22;8064;51.142;4.780;2024-02-15T09:14:11;14.40;99.90
15930;DHT22;8064;51.142;4.780;2024-02-15T09:16:36;14.50;99.90
15930;DHT22;8064;51.142;4.780;2024-02-15T09:19:02;14.50;99.90
15930;DHT22;8064;51.142;4.780;2024-02-15T09:21:28;14.60;99.90
15930;DHT22;8064;51.142;4.780;2024-02-15T09:23:55;14.70;99.90
15930;DHT22;8064;51.142;4.780;2024-02-15T09:26:21;14.70;99.90
15930;DHT22;8064;51.142;4.780;2024-02-15T09:28:47;14.70;99.90
15930;DHT22;8064;51.142;4.780;2024-02-15T09:31:13;14.80;99.90
15930;DHT22;8064;51.142;4.780;2024-02-15T09:33:39;14.90;99.90
15930;DHT22;8064;51.142;4.780;2024-02-15T09:36:05;15.00;99.90
15930;DHT22;8064;51.142;4.780;2024-02-15T09:38:31;15.10;99.90
15930;DHT22;8064;51.142;4.780;2024-02-15T09:40:57;15.30;99.90
15930;DHT22;8064;51.142;4.780;2024-02-15T09:43:23;15.40;99.90
15930;DHT22;8064;51.142;4.780;2024-02-15T09:45:52;15.40;99.90
15930;DHT22;8064;51.142;4.780;2024-02-15T09:48:18;15.50;99.90
15930;DHT22;8064;51.142;4.780;2024-02-15T09:50:47;15.40;99.90
15930;DHT22;8064;51.142;4.780;2024-02-15T09:53:15;15.40;99.90
15930;DHT22;8064;51.142;4.780;2024-02-15T09:55:42;15.40;99.90
15930;DHT22;8064;51.142;4.780;2024-02-15T09:58:08;15.40;99.90
15930;DHT22;8064;51.142;4.780;2024-02-15T10:00:35;15.40;99.90
15930;DHT22;8064;51.142;4.780;2024-02-15T10:03:02;15.50;99.90
15930;DHT22;8064;51.142;4.780;2024-02-15T10:05:31;15.60;99.90
15930;DHT22;8064;51.142;4.780;2024-02-15T10:07:57;15.70;99.90
15930;DHT22;8064;51.142;4.780;2024-02-15T10:10:23;15.70;99.90
15930;DHT22;8064;51.142;4.780;2024-02-15T10:12:51;15.70;99.90
15930;DHT22;8064;51.142;4.780;2024-02-15T10:15:36;15.70;99.90
15930;DHT22;8064;51.142;4.780;2024-02-15T10:18:04;15.80;99.90
15930;DHT22;8064;51.142;4.780;2024-02-15T10:20:30;15.80;99.90
15930;DHT22;8064;51.142;4.780;2024-02-15T10:25:34;15.90;99.90
15930;DHT22;8064;51.142;4.780;2024-02-15T10:28:08;15.90;99.90
15930;DHT22;8064;51.142;4.780;2024-02-15T10:30:36;15.90;99.90
15930;DHT22;8064;51.142;4.780;2024-02-15T10:33:03;16.00;99.90
15930;DHT22;8064;51.142;4.780;2024-02-15T10:35:30;16.00;99.90
15930;DHT22;8064;51.142;4.780;2024-02-15T10:38:08;16.10;99.90
15930;DHT22;8064;51.142;4.780;2024-02-15T10:40:34;16.10;99.90
15930;DHT22;8064;51.142;4.780;2024-02-15T10:43:03;16.10;99.90
15930;DHT22;8064;51.142;4.780;2024-02-15T10:45:31;16.10;99.90
15930;DHT22;8064;51.142;4.780;2024-02-15T10:47:57;16.10;99.90
15930;DHT22;8064;51.142;4.780;2024-02-15T10:50:24;16.10;99.90
15930;DHT22;8064;51.142;4.780;2024-02-15T10:52:57;16.10;99.90
15930;DHT22;8064;51.142;4.780;2024-02-15T10:55:37;16.10;99.90
15930;DHT22;8064;51.142;4.780;2024-02-15T10:58:05;16.10;99.90
15930;DHT22;8064;51.142;4.780;2024-02-15T11:00:33;16.10;99.90
15930;DHT22;8064;51.142;4.780;2024-02-15T11:03:04;16.20;99.90
15930;DHT22;8064;51.142;4.780;2024-02-15T11:05:33;16.30;99.90
15930;DHT22;8064;51.142;4.780;2024-02-15T11:08:05;16.40;99.90
15930;DHT22;8064;51.142;4.780;2024-02-15T11:10:35;16.50;99.90
15930;DHT22;8064;51.142;4.780;2024-02-15T11:13:03;16.50;99.90
15930;DHT22;8064;51.142;4.780;2024-02-15T11:15:40;16.60;99.90
15930;DHT22;8064;51.142;4.780;2024-02-15T11:18:07;16.70;99.90
15930;DHT22;8064;51.142;4.780;2024-02-15T11:23:00;17.10;99.90
15930;DHT22;8064;51.142;4.780;2024-02-15T11:25:34;17.70;99.90
15930;DHT22;8064;51.142;4.780;2024-02-15T11:30:49;19.60;99.90
15930;DHT22;8064;51.142;4.780;2024-02-15T11:33:35;20.30;99.90
15930;DHT22;8064;51.142;4.780;2024-02-15T11:36:09;20.40;99.90
15930;DHT22;8064;51.142;4.780;2024-02-15T11:38:37;20.10;99.90
15930;DHT22;8064;51.142;4.780;2024-02-15T11:41:07;20.00;99.90
15930;DHT22;8064;51.142;4.780;2024-02-15T11:43:46;20.10;99.90
15930;DHT22;8064;51.142;4.780;2024-02-15T11:46:23;20.00;99.90
15930;DHT22;8064;51.142;4.780;2024-02-15T11:48:52;20.60;99.90
15930;DHT22;8064;51.142;4.780;2024-02-15T11:51:29;21.80;99.90
15930;DHT22;8064;51.142;4.780;2024-02-15T11:54:04;22.90;99.90
15930;DHT22;8064;51.142;4.780;2024-02-15T11:56:49;23.90;99.90
15930;DHT22;8064;51.142;4.780;2024-02-15T11:59:20;24.10;99.90
15930;DHT22;8064;51.142;4.780;2024-02-15T12:01:57;23.80;99.90
15930;DHT22;8064;51.142;4.780;2024-02-15T12:04:42;23.40;99.90
15930;DHT22;8064;51.142;4.780;2024-02-15T12:07:27;22.90;99.90
15930;DHT22;8064;51.142;4.780;2024-02-15T12:10:17;22.50;99.90
15930;DHT22;8064;51.142;4.780;2024-02-15T12:13:01;23.30;99.90
15930;DHT22;8064;51.142;4.780;2024-02-15T12:15:56;23.60;99.90
15930;DHT22;8064;51.142;4.780;2024-02-15T12:18:41;23.40;99.90
15930;DHT22;8064;51.142;4.780;2024-02-15T12:21:09;23.00;99.90
15930;DHT22;8064;51.142;4.780;2024-02-15T12:23:38;22.60;99.90
15930;DHT22;8064;51.142;4.780;2024-02-15T12:26:04;22.10;99.90
15930;DHT22;8064;51.142;4.780;2024-02-15T12:28:31;21.80;99.90
15930;DHT22;8064;51.142;4.780;2024-02-15T12:30:57;21.50;99.90
15930;DHT22;8064;51.142;4.780;2024-02-15T12:33:23;21.50;99.90
15930;DHT22;8064;51.142;4.780;2024-02-15T12:35:49;22.10;99.90
15930;DHT22;8064;51.142;4.780;2024-02-15T12:38:16;22.70;99.90
15930;DHT22;8064;51.142;4.780;2024-02-15T12:40:42;23.00;99.90
15930;DHT22;8064;51.142;4.780;2024-02-15T12:43:10;23.00;99.90
15930;DHT22;8064;51.142;4.780;2024-02-15T12:45:37;22.60;99.90
15930;DHT22;8064;51.142;4.780;2024-02-15T12:48:05;22.30;99.90
15930;DHT22;8064;51.142;4.780;2024-02-15T12:50:31;22.00;99.90
15930;DHT22;8064;51.142;4.780;2024-02-15T12:52:58;21.70;99.90
15930;DHT22;8064;51.142;4.780;2024-02-15T12:55:30;21.30;99.90
15930;DHT22;8064;51.142;4.780;2024-02-15T12:58:01;20.90;99.90
15930;DHT22;8064;51.142;4.780;2024-02-15T13:00:31;20.50;99.90
15930;DHT22;8064;51.142;4.780;2024-02-15T13:02:59;20.10;99.90
15930;DHT22;8064;51.142;4.780;2024-02-15T13:05:29;19.80;99.90
15930;DHT22;8064;51.142;4.780;2024-02-15T13:07:56;19.50;99.90
15930;DHT22;8064;51.142;4.780;2024-02-15T13:10:23;19.40;99.90
15930;DHT22;8064;51.142;4.780;2024-02-15T13:12:52;19.20;99.90
15930;DHT22;8064;51.142;4.780;2024-02-15T13:15:18;19.10;99.90
15930;DHT22;8064;51.142;4.780;2024-02-15T13:17:48;19.00;99.90
15930;DHT22;8064;51.142;4.780;2024-02-15T13:20:17;18.90;99.90
15930;DHT22;8064;51.142;4.780;2024-02-15T13:22:46;18.80;99.90
15930;DHT22;8064;51.142;4.780;2024-02-15T13:25:14;18.80;99.90
15930;DHT22;8064;51.142;4.780;2024-02-15T13:27:42;18.80;99.90
15930;DHT22;8064;51.142;4.780;2024-02-15T13:30:09;18.90;99.90
15930;DHT22;8064;51.142;4.780;2024-02-15T13:32:37;18.90;99.90
15930;DHT22;8064;51.142;4.780;2024-02-15T13:35:05;19.10;99.90
15930;DHT22;8064;51.142;4.780;2024-02-15T13:37:40;19.20;99.90
15930;DHT22;8064;51.142;4.780;2024-02-15T13:40:10;19.20;99.90
15930;DHT22;8064;51.142;4.780;2024-02-15T13:42:42;19.20;99.90
15930;DHT22;8064;51.142;4.780;2024-02-15T13:45:12;19.30;99.90
15930;DHT22;8064;51.142;4.780;2024-02-15T13:47:39;19.40;99.90
15930;DHT22;8064;51.142;4.780;2024-02-15T13:50:05;19.40;99.90
15930;DHT22;8064;51.142;4.780;2024-02-15T13:52:31;19.50;99.90
15930;DHT22;8064;51.142;4.780;2024-02-15T13:54:56;19.50;99.90
15930;DHT22;8064;51.142;4.780;2024-02-15T13:57:22;19.50;99.90
15930;DHT22;8064;51.142;4.780;2024-02-15T13:59:48;19.50;99.90
15930;DHT22;8064;51.142;4.780;2024-02-15T14:02:14;19.40;99.90
15930;DHT22;8064;51.142;4.780;2024-02-15T14:04:40;19.40;99.90
15930;DHT22;8064;51.142;4.780;2024-02-15T14:07:05;19.40;99.90
15930;DHT22;8064;51.142;4.780;2024-02-15T14:09:33;19.40;99.90
15930;DHT22;8064;51.142;4.780;2024-02-15T14:11:59;19.40;99.90
15930;DHT22;8064;51.142;4.780;2024-02-15T14:14:27;19.40;99.90
15930;DHT22;8064;51.142;4.780;2024-02-15T14:16:53;19.30;99.90
15930;DHT22;8064;51.142;4.780;2024-02-15T14:19:18;19.30;99.90
15930;DHT22;8064;51.142;4.780;2024-02-15T14:21:44;19.30;99.90
15930;DHT22;8064;51.142;4.780;2024-02-15T14:24:10;19.30;99.90
15930;DHT22;8064;51.142;4.780;2024-02-15T14:26:36;19.30;99.90
15930;DHT22;8064;51.142;4.780;2024-02-15T14:29:02;19.30;99.90
15930;DHT22;8064;51.142;4.780;2024-02-15T14:31:28;19.30;99.90
15930;DHT22;8064;51.142;4.780;2024-02-15T14:34:12;19.30;99.90
15930;DHT22;8064;51.142;4.780;2024-02-15T14:36:38;19.20;99.90
15930;DHT22;8064;51.142;4.780;2024-02-15T14:39:04;19.20;99.90
15930;DHT22;8064;51.142;4.780;2024-02-15T14:41:30;19.20;99.90
15930;DHT22;8064;51.142;4.780;2024-02-15T14:43:56;19.10;99.90
15930;DHT22;8064;51.142;4.780;2024-02-15T14:46:22;19.10;99.90
15930;DHT22;8064;51.142;4.780;2024-02-15T14:48:50;19.00;99.90
15930;DHT22;8064;51.142;4.780;2024-02-15T14:51:16;18.90;99.90
15930;DHT22;8064;51.142;4.780;2024-02-15T14:53:44;18.90;99.90
15930;DHT22;8064;51.142;4.780;2024-02-15T14:56:10;18.80;99.90
15930;DHT22;8064;51.142;4.780;2024-02-15T14:58:36;18.70;99.90
15930;DHT22;8064;51.142;4.780;2024-02-15T15:01:02;18.70;99.90
15930;DHT22;8064;51.142;4.780;2024-02-15T15:03:33;18.70;99.90
15930;DHT22;8064;51.142;4.780;2024-02-15T15:06:04;18.60;99.90
15930;DHT22;8064;51.142;4.780;2024-02-15T15:08:48;18.50;99.90
15930;DHT22;8064;51.142;4.780;2024-02-15T15:11:32;18.40;99.90
15930;DHT22;8064;51.142;4.780;2024-02-15T15:14:16;18.30;99.90
15930;DHT22;8064;51.142;4.780;2024-02-15T15:16:42;18.20;99.90
15930;DHT22;8064;51.142;4.780;2024-02-15T15:19:09;18.10;99.90
15930;DHT22;8064;51.142;4.780;2024-02-15T15:21:36;18.00;99.90
15930;DHT22;8064;51.142;4.780;2024-02-15T15:24:02;18.00;99.90
15930;DHT22;8064;51.142;4.780;2024-02-15T15:26:30;17.90;99.90
15930;DHT22;8064;51.142;4.780;2024-02-15T15:28:57;17.90;99.90
15930;DHT22;8064;51.142;4.780;2024-02-15T15:31:24;17.90;99.90
15930;DHT22;8064;51.142;4.780;2024-02-15T15:33:51;17.80;99.90
15930;DHT22;8064;51.142;4.780;2024-02-15T15:36:18;17.80;99.90
15930;DHT22;8064;51.142;4.780;2024-02-15T15:38:44;17.80;99.90
15930;DHT22;8064;51.142;4.780;2024-02-15T15:41:10;17.70;99.90
15930;DHT22;8064;51.142;4.780;2024-02-15T15:43:37;17.70;99.90
15930;DHT22;8064;51.142;4.780;2024-02-15T15:46:04;17.60;99.90
15930;DHT22;8064;51.142;4.780;2024-02-15T15:48:30;17.60;99.90
15930;DHT22;8064;51.142;4.780;2024-02-15T15:50:56;17.50;99.90
15930;DHT22;8064;51.142;4.780;2024-02-15T15:53:24;17.50;99.90
15930;DHT22;8064;51.142;4.780;2024-02-15T15:55:50;17.50;99.90
15930;DHT22;8064;51.142;4.780;2024-02-15T15:58:16;17.40;99.90
15930;DHT22;8064;51.142;4.780;2024-02-15T16:00:42;17.40;99.90